Time;durP1;ratioP1;P1;durP2;ratioP2;P2;SDS_P1;SDS_P2;PMS_P1;PMS_P2;Temp;Humidity;BMP_temperature;BMP_pressure;BME280_temperature;BME280_humidity;BME280_pressure;Samples;Min_cycle;Max_cycle;Signal;HPM_P1;HPM_P2
2024/03/01 00:00:13;;;;;;;24.55;14.95;;;;;;;7.82;64.82;98932.19;4113733;28;20117;-70
2024/03/01 00:02:14;;;;;;;25.92;15.88;;;;;;;7.85;64.63;98929.19;4114887;28;20031;-68
2024/03/01 00:04:15;;;;;;;27.73;14.48;;;;;;;7.90;64.48;98929.59;4118141;28;20117;-69
2024/03/01 00:06:16;;;;;;;22.67;13.95;;;;;;;7.95;64.47;98926.47;4130292;28;20037;-69
2024/03/01 00:08:17;;;;;;;29.02;18.38;;;;;;;7.80;64.86;98918.19;4133801;28;20555;-69
2024/03/01 00:10:17;;;;;;;25.23;16.48;;;;;;;7.85;64.79;98921.22;4134688;28;20030;-70
2024/03/01 00:12:18;;;;;;;23.23;15.30;;;;;;;7.92;64.41;98926.75;4133432;28;20022;-69
2024/03/01 00:14:18;;;;;;;30.00;16.73;;;;;;;7.71;65.16;98911.97;4140260;28;20032;-70
2024/03/01 00:16:19;;;;;;;34.92;19.65;;;;;;;7.44;65.85;98913.72;4141609;28;20049;-70
2024/03/01 00:18:20;;;;;;;30.00;18.65;;;;;;;7.33;66.33;98917.47;4149749;28;20057;-71
2024/03/01 00:20:22;;;;;;;31.33;19.30;;;;;;;7.38;66.12;98903.72;4142065;28;20026;-70
2024/03/01 00:22:22;;;;;;;32.22;16.83;;;;;;;7.47;65.93;98905.47;4141734;28;20057;-70
2024/03/01 00:24:23;;;;;;;27.08;17.30;;;;;;;7.39;66.09;98905.38;4142291;28;20450;-70
2024/03/01 00:26:23;;;;;;;26.50;16.73;;;;;;;7.53;65.74;98903.16;4140300;28;20089;-69
2024/03/01 00:28:23;;;;;;;31.05;17.38;;;;;;;7.56;65.56;98900.22;4140417;28;20574;-70
2024/03/01 00:30:24;;;;;;;30.77;18.13;;;;;;;7.28;66.16;98913.59;4134028;28;20031;-71
2024/03/01 00:32:25;;;;;;;31.85;18.10;;;;;;;7.13;66.67;98911.44;4133218;28;20034;-69
2024/03/01 00:34:25;;;;;;;31.77;18.80;;;;;;;7.15;66.76;98906.00;4134114;28;20030;-70
2024/03/01 00:36:25;;;;;;;26.70;17.77;;;;;;;7.29;66.39;98900.13;4133676;28;20101;-71
2024/03/01 00:38:26;;;;;;;25.95;16.50;;;;;;;7.28;66.30;98893.16;4133507;28;20034;-70
2024/03/01 00:40:27;;;;;;;30.60;17.25;;;;;;;7.12;66.82;98903.63;4133491;28;20053;-69
2024/03/01 00:42:27;;;;;;;28.60;17.75;;;;;;;7.16;66.50;98910.31;4133567;28;20037;-69
2024/03/01 00:44:28;;;;;;;26.70;17.65;;;;;;;7.18;66.61;98919.81;4133882;28;20394;-70
2024/03/01 00:46:28;;;;;;;28.70;17.98;;;;;;;7.17;66.74;98938.56;4133594;28;20045;-69
2024/03/01 00:48:30;;;;;;;26.40;17.80;;;;;;;7.15;66.71;98925.41;4133222;28;20206;-70
2024/03/01 00:50:31;;;;;;;27.75;16.70;;;;;;;7.21;66.74;98917.84;4132568;28;20030;-70
2024/03/01 00:52:31;;;;;;;29.27;17.27;;;;;;;7.23;66.66;98926.47;4133028;28;20113;-69
2024/03/01 00:54:32;;;;;;;30.52;18.23;;;;;;;7.22;66.69;98920.34;4133449;28;20268;-70
2024/03/01 00:56:32;;;;;;;27.67;17.00;;;;;;;7.21;66.74;98917.84;4132047;28;20058;-70
2024/03/01 00:58:33;;;;;;;27.87;16.83;;;;;;;7.13;66.85;98914.09;4133288;28;20053;-70
2024/03/01 01:00:33;;;;;;;33.28;19.67;;;;;;;7.07;67.21;98924.50;4133447;28;20725;-69
2024/03/01 01:02:37;;;;;;;28.85;16.33;;;;;;;7.14;66.99;98922.91;4133897;28;20026;-69
2024/03/01 01:04:38;;;;;;;30.85;19.05;;;;;;;7.16;66.87;98923.63;4136784;28;20499;-69
2024/03/01 01:06:39;;;;;;;30.30;18.30;;;;;;;7.15;66.97;98927.25;4135484;28;20026;-69
2024/03/01 01:08:40;;;;;;;24.33;16.60;;;;;;;7.13;67.03;98929.22;4134083;28;20105;-70
2024/03/01 01:10:41;;;;;;;30.23;17.65;;;;;;;7.10;67.07;98917.06;4133487;28;20498;-69
2024/03/01 01:12:42;;;;;;;24.45;16.17;;;;;;;7.13;67.06;98916.75;4134160;28;20077;-69
2024/03/01 01:14:43;;;;;;;28.75;17.30;;;;;;;7.15;67.02;98912.13;4140053;28;20026;-69
2024/03/01 01:16:43;;;;;;;27.33;16.63;;;;;;;7.15;66.96;98912.13;4140500;28;20470;-70
2024/03/01 01:18:44;;;;;;;25.07;16.80;;;;;;;7.16;66.97;98907.66;4140853;28;20045;-69
2024/03/01 01:20:45;;;;;;;33.03;19.00;;;;;;;7.22;66.76;98899.06;4140797;28;20038;-69
2024/03/01 01:22:46;;;;;;;25.35;16.33;;;;;;;7.22;66.81;98896.41;4139248;28;20030;-69
2024/03/01 01:24:46;;;;;;;26.95;17.15;;;;;;;7.22;66.96;98890.28;4143887;28;20026;-70
2024/03/01 01:26:46;;;;;;;28.10;17.10;;;;;;;7.25;66.76;98890.81;4148786;28;20030;-69
2024/03/01 01:28:51;;;;;;;25.85;17.15;;;;;;;7.29;66.80;98894.81;4148691;28;20611;-70
2024/03/01 01:30:52;;;;;;;23.92;14.70;;;;;;;7.36;66.65;98896.88;4148064;28;20499;-69
2024/03/01 01:32:52;;;;;;;27.83;16.60;;;;;;;7.37;66.58;98887.94;4148075;28;20033;-69
2024/03/01 01:34:53;;;;;;;27.33;17.00;;;;;;;7.26;66.86;98887.16;4148734;28;20533;-70
2024/03/01 01:36:53;;;;;;;24.88;15.57;;;;;;;7.28;66.99;98892.31;4148239;28;20253;-70
2024/03/01 01:38:55;;;;;;;27.58;16.05;;;;;;;7.31;66.90;98887.53;4148886;28;20033;-69
2024/03/01 01:40:55;;;;;;;23.33;14.77;;;;;;;7.31;66.89;98898.16;4148579;28;20029;-69
2024/03/01 01:42:57;;;;;;;24.33;16.48;;;;;;;7.30;66.97;98904.47;4148269;28;20473;-69
2024/03/01 01:44:58;;;;;;;29.10;18.13;;;;;;;7.16;67.27;98905.00;4147479;28;20030;-69
2024/03/01 01:47:00;;;;;;;31.33;18.95;;;;;;;7.08;67.75;98905.75;4148358;28;20026;-70
2024/03/01 01:49:01;;;;;;;24.83;16.73;;;;;;;7.18;67.29;98913.63;4148385;28;20052;-70
2024/03/01 01:51:03;;;;;;;30.27;18.40;;;;;;;7.11;67.66;98901.94;4149254;28;20085;-69
2024/03/01 01:53:04;;;;;;;29.08;18.80;;;;;;;7.01;68.02;98897.53;4155980;28;20044;-70
2024/03/01 01:55:05;;;;;;;;;;;;;;;7.10;67.92;98894.97;4159752;28;20080;-69
2024/03/01 01:57:06;;;;;;;26.13;15.80;;;;;;;7.17;67.27;98890.72;4159620;28;19964;-69
2024/03/01 01:59:07;;;;;;;45.38;16.02;;;;;;;7.21;67.17;98901.91;4157523;28;20032;-70
2024/03/01 02:01:09;;;;;;;28.77;17.98;;;;;;;7.09;67.51;98903.91;4156469;28;20088;-70
2024/03/01 02:03:10;;;;;;;27.75;17.95;;;;;;;7.09;67.63;98901.25;4157208;28;20025;-69
2024/03/01 02:05:10;;;;;;;27.92;18.35;;;;;;;7.10;67.71;98889.63;4158144;28;20128;-70
2024/03/01 02:07:11;;;;;;;32.22;19.45;;;;;;;7.16;67.49;98883.75;4155464;28;20030;-71
2024/03/01 02:09:12;;;;;;;32.25;18.90;;;;;;;7.11;67.62;98892.16;4148468;28;20111;-69
2024/03/01 02:11:13;;;;;;;;;;;;;;;7.10;67.76;98890.50;4149097;28;20029;-69
2024/03/01 02:13:19;;;;;;;29.37;17.63;;;;;;;7.17;67.56;98894.22;4151930;28;19909;-69
2024/03/01 02:15:28;;;;;;;30.60;19.10;;;;;;;7.12;67.68;98890.34;4167863;28;20033;-69
2024/03/01 02:17:28;;;;;;;27.83;17.75;;;;;;;7.21;67.23;98880.63;4150203;28;20037;-69
2024/03/01 02:19:29;;;;;;;28.20;18.80;;;;;;;7.16;67.26;98894.38;4140615;28;20026;-69
2024/03/01 02:21:36;;;;;;;31.30;19.75;;;;;;;6.96;67.77;98894.50;4140371;28;20559;-69
2024/03/01 02:23:38;;;;;;;26.35;17.83;;;;;;;7.02;67.70;98888.59;4146390;28;20072;-69
2024/03/01 02:25:38;;;;;;;31.75;18.63;;;;;;;7.02;67.83;98883.25;4139610;28;20029;-70
2024/03/01 02:27:38;;;;;;;29.58;17.55;;;;;;;7.05;67.79;98883.97;4132148;28;20022;-70
2024/03/01 02:29:39;;;;;;;26.57;17.17;;;;;;;7.05;67.75;98881.31;4138804;28;20088;-68
2024/03/01 02:31:39;;;;;;;28.00;17.60;;;;;;;7.02;67.95;98882.44;4147657;28;20276;-70
2024/03/01 02:33:40;;;;;;;31.00;18.17;;;;;;;6.97;68.17;98874.91;4147247;28;20453;-69
2024/03/01 02:35:40;;;;;;;32.33;19.30;;;;;;;6.77;68.83;98865.41;4147670;28;20030;-70
2024/03/01 02:37:43;;;;;;;37.73;20.07;;;;;;;6.74;69.12;98863.03;4147798;28;20022;-70
2024/03/01 02:39:44;;;;;;;36.22;19.35;;;;;;;6.69;69.20;98859.03;4142022;28;20280;-69
2024/03/01 02:41:46;;;;;;;33.03;20.80;;;;;;;6.58;69.49;98858.38;4138612;28;20179;-69
2024/03/01 02:43:46;;;;;;;34.33;21.80;;;;;;;6.38;70.18;98859.31;4146232;28;20280;-68
2024/03/01 02:45:47;;;;;;;37.87;23.20;;;;;;;6.26;70.60;98847.19;4142237;28;20036;-70
2024/03/01 02:47:47;;;;;;;31.90;20.48;;;;;;;6.26;70.52;98849.03;4145335;28;20314;-70
2024/03/01 02:49:48;;;;;;;38.35;21.60;;;;;;;6.23;70.76;98836.91;4151862;28;20061;-69
2024/03/01 02:51:48;;;;;;;35.97;21.93;;;;;;;6.23;70.24;98840.38;4152627;28;20033;-69
2024/03/01 02:53:49;;;;;;;41.88;21.20;;;;;;;6.18;70.68;98855.06;4143913;28;20686;-70
2024/03/01 02:55:49;;;;;;;30.70;19.25;;;;;;;6.27;70.44;98846.22;4131135;28;20395;-69
2024/03/01 02:57:51;;;;;;;33.15;20.05;;;;;;;6.26;70.22;98846.38;4131144;28;20443;-69
2024/03/01 02:59:52;;;;;;;35.03;20.15;;;;;;;6.23;70.33;98860.78;4131234;28;20064;-69
2024/03/01 03:01:52;;;;;;;33.95;19.77;;;;;;;6.30;70.16;98868.97;4130892;28;20653;-70
2024/03/01 03:03:53;;;;;;;30.83;18.17;;;;;;;6.37;69.96;98867.44;4130820;28;20402;-70
2024/03/01 03:05:53;;;;;;;28.67;16.30;;;;;;;6.51;69.57;98860.78;4131012;28;20117;-69
2024/03/01 03:07:53;;;;;;;33.03;16.97;;;;;;;6.56;69.28;98869.16;4130720;28;20269;-70
2024/03/01 03:09:54;;;;;;;25.93;15.63;;;;;;;6.62;69.17;98865.06;4130224;28;20300;-69
2024/03/01 03:11:55;;;;;;;24.85;16.10;;;;;;;6.71;68.85;98878.28;4130674;28;20383;-68
2024/03/01 03:13:55;;;;;;;27.35;16.80;;;;;;;6.73;68.69;98870.19;4133167;28;20030;-70
2024/03/01 03:15:56;;;;;;;27.63;17.57;;;;;;;6.77;68.67;98857.44;4138306;28;20044;-69
2024/03/01 03:17:57;;;;;;;25.55;15.02;;;;;;;6.80;68.63;98865.94;4139309;28;20028;-70
2024/03/01 03:19:57;;;;;;;25.25;15.45;;;;;;;6.77;68.68;98873.38;4147111;28;20382;-69
2024/03/01 03:21:58;;;;;;;30.95;19.90;;;;;;;6.77;68.62;98865.41;4138430;28;20468;-70
2024/03/01 03:23:59;;;;;;;33.38;20.25;;;;;;;6.61;69.11;98861.59;4138722;28;20482;-69
2024/03/01 03:26:00;;;;;;;34.20;20.38;;;;;;;6.63;69.14;98862.25;4138241;28;20077;-71
2024/03/01 03:28:00;;;;;;;30.27;18.17;;;;;;;6.65;69.25;98872.75;4138999;28;20021;-69
2024/03/01 03:30:01;;;;;;;29.58;18.27;;;;;;;6.67;69.07;98874.25;4135235;28;20061;-69
2024/03/01 03:32:03;;;;;;;33.05;18.20;;;;;;;6.58;69.23;98869.84;4138343;28;20026;-69
2024/03/01 03:34:04;;;;;;;34.63;18.73;;;;;;;6.54;69.34;98873.75;4130531;28;20027;-68
2024/03/01 03:36:08;;;;;;;29.05;16.88;;;;;;;6.59;69.25;98865.34;4130913;28;20036;-71
2024/03/01 03:38:09;;;;;;;29.15;17.02;;;;;;;6.65;69.17;98859.47;4130400;28;20030;-68
2024/03/01 03:40:15;;;;;;;27.90;16.67;;;;;;;6.68;69.07;98862.66;4130443;28;20489;-69
2024/03/01 03:42:16;;;;;;;30.95;18.10;;;;;;;6.42;69.64;98857.19;4130603;28;20482;-70
2024/03/01 03:44:17;;;;;;;31.13;19.50;;;;;;;6.49;69.67;98850.31;4131221;28;20094;-70
2024/03/01 03:46:17;;;;;;;;;;;;;;;6.46;69.94;98855.06;4131100;28;20125;-68
2024/03/01 03:48:18;;;;;;;29.37;17.33;;;;;;;6.53;69.60;98866.78;4131471;28;19972;-70
2024/03/01 03:50:19;;;;;;;29.23;17.20;;;;;;;6.56;69.34;98885.06;4131046;28;20030;-69
2024/03/01 03:52:19;;;;;;;28.83;17.88;;;;;;;6.62;69.13;98892.44;4131373;28;20087;-68
2024/03/01 03:54:20;;;;;;;30.03;17.23;;;;;;;6.66;68.89;98887.69;4134789;28;20057;-70
2024/03/01 03:56:23;;;;;;;24.35;15.98;;;;;;;6.72;68.97;98887.09;4139935;28;20324;-70
2024/03/01 03:58:23;;;;;;;23.20;14.70;;;;;;;6.76;68.86;98887.63;4139982;28;20049;-69
2024/03/01 04:00:24;;;;;;;23.90;15.45;;;;;;;6.78;68.80;98885.66;4132791;28;20519;-69
2024/03/01 04:02:24;;;;;;;22.05;13.80;;;;;;;6.80;68.82;98883.72;4130471;28;20594;-69
2024/03/01 04:04:25;;;;;;;24.20;14.90;;;;;;;6.82;68.59;98897.66;4130319;28;20105;-69
2024/03/01 04:06:25;;;;;;;27.58;15.50;;;;;;;6.72;68.91;98897.72;4130640;28;20041;-70
2024/03/01 04:08:26;;;;;;;31.10;15.82;;;;;;;6.74;68.75;98894.91;4130429;28;20571;-70
2024/03/01 04:10:26;;;;;;;25.63;15.38;;;;;;;6.77;68.81;98890.13;4129654;28;20453;-70
2024/03/01 04:12:27;;;;;;;26.38;15.27;;;;;;;6.79;68.57;98893.47;4130795;28;20422;-69
2024/03/01 04:14:27;;;;;;;26.50;16.20;;;;;;;6.79;68.63;98892.66;4138000;28;20030;-69
2024/03/01 04:16:29;;;;;;;26.40;17.80;;;;;;;6.72;68.89;98903.03;4149691;28;20023;-69
2024/03/01 04:18:30;;;;;;;24.70;14.80;;;;;;;6.79;68.77;98908.59;4150868;28;20065;-68
2024/03/01 04:20:30;;;;;;;22.23;15.50;;;;;;;6.83;68.57;98907.28;4149829;28;20026;-70
2024/03/01 04:22:30;;;;;;;25.83;17.25;;;;;;;6.84;68.75;98906.31;4149365;28;20036;-71
2024/03/01 04:24:31;;;;;;;29.55;16.85;;;;;;;6.83;68.64;98904.63;4141634;28;20045;-70
2024/03/01 04:26:32;;;;;;;32.65;18.88;;;;;;;6.84;68.68;98908.97;4148391;28;20493;-69
2024/03/01 04:28:33;;;;;;;30.90;19.50;;;;;;;6.84;68.67;98917.78;4146665;28;20050;-70
2024/03/01 04:30:35;;;;;;;30.05;16.50;;;;;;;6.88;68.55;98913.03;4148738;28;20315;-68
2024/03/01 04:32:36;;;;;;;30.58;17.38;;;;;;;6.91;68.55;98920.66;4138838;28;20022;-70
2024/03/01 04:34:36;;;;;;;34.17;18.80;;;;;;;6.87;68.75;98925.44;4138569;28;20064;-69
2024/03/01 04:36:38;;;;;;;24.43;15.90;;;;;;;6.91;68.61;98928.63;4138125;28;20148;-69
2024/03/01 04:38:39;;;;;;;25.08;15.30;;;;;;;6.91;68.61;98933.13;4138356;28;20108;-69
2024/03/01 04:40:41;;;;;;;23.65;15.13;;;;;;;6.95;68.60;98932.69;4130404;28;20030;-70
2024/03/01 04:42:43;;;;;;;28.40;17.98;;;;;;;6.95;68.48;98940.66;4130191;28;20027;-70
2024/03/01 04:44:45;;;;;;;27.42;16.40;;;;;;;6.98;68.63;98937.72;4130963;28;20046;-69
2024/03/01 04:46:45;;;;;;;;;;;;;;;6.82;69.17;98940.16;4138938;28;20037;-68
2024/03/01 04:48:46;;;;;;;34.33;17.93;;;;;;;6.74;69.33;98932.09;4138940;28;19910;-69
2024/03/01 04:50:46;;;;;;;32.83;17.83;;;;;;;6.71;69.29;98936.72;4146217;28;20029;-71
2024/03/01 04:52:47;;;;;;;31.80;19.75;;;;;;;6.69;69.49;98936.03;4145905;28;20030;-70
2024/03/01 04:54:48;;;;;;;36.43;19.83;;;;;;;6.67;69.50;98940.66;4165694;28;20022;-70
2024/03/01 04:56:49;;;;;;;32.33;19.95;;;;;;;6.58;69.98;98935.38;4137335;28;20026;-70
2024/03/01 04:58:49;;;;;;;34.63;19.70;;;;;;;6.55;70.00;98928.53;4132467;28;20463;-70
2024/03/01 05:00:53;;;;;;;34.40;20.00;;;;;;;6.52;70.30;98935.00;4133497;28;20285;-70
2024/03/01 05:02:54;;;;;;;33.80;19.95;;;;;;;6.59;70.10;98948.53;4134275;28;20027;-70
2024/03/01 05:04:56;;;;;;;32.17;19.17;;;;;;;6.56;70.26;98946.97;4134025;28;20099;-70
2024/03/01 05:06:56;;;;;;;29.52;17.63;;;;;;;6.68;69.85;98955.63;4132470;28;20321;-70
2024/03/01 05:08:57;;;;;;;28.03;18.13;;;;;;;6.64;69.92;98964.03;4136146;28;20022;-70
2024/03/01 05:10:59;;;;;;;34.15;19.90;;;;;;;6.70;69.82;98958.97;4139580;28;20284;-70
2024/03/01 05:13:00;;;;;;;26.05;15.95;;;;;;;6.82;69.53;98964.91;4150448;28;20037;-70
2024/03/01 05:15:00;;;;;;;28.10;16.15;;;;;;;6.87;69.30;98961.81;4153739;28;20026;-70
2024/03/01 05:17:00;;;;;;;30.33;16.93;;;;;;;6.88;69.29;98958.19;4131351;28;20390;-70
2024/03/01 05:19:01;;;;;;;30.20;17.67;;;;;;;6.88;69.31;98960.84;4131702;28;20070;-70
2024/03/01 05:21:04;;;;;;;26.70;17.52;;;;;;;6.89;69.25;98953.69;4131503;28;20030;-70
2024/03/01 05:23:04;;;;;;;28.20;17.00;;;;;;;6.92;69.16;98954.22;4131163;28;20029;-70
2024/03/01 05:25:14;;;;;;;22.67;15.18;;;;;;;6.93;69.20;98963.88;4131728;28;20027;-70
2024/03/01 05:27:15;;;;;;;27.67;16.15;;;;;;;6.95;69.09;98959.25;4131575;28;20109;-71
2024/03/01 05:29:17;;;;;;;25.80;15.95;;;;;;;6.92;69.11;98956.06;4131670;28;20030;-70
2024/03/01 05:31:18;;;;;;;25.90;16.48;;;;;;;6.90;69.10;98955.38;4131939;28;20030;-69
2024/03/01 05:33:19;;;;;;;34.72;19.55;;;;;;;6.82;69.41;98961.41;4131556;28;20653;-70
2024/03/01 05:35:21;;;;;;;30.58;18.73;;;;;;;6.80;69.38;98958.09;4130204;28;20034;-70
2024/03/01 05:37:21;;;;;;;28.70;18.55;;;;;;;6.70;69.62;98963.44;4131268;28;20023;-70
2024/03/01 05:39:21;;;;;;;30.57;17.73;;;;;;;6.67;69.74;98966.38;4131550;28;20129;-69
2024/03/01 05:41:22;;;;;;;33.87;19.57;;;;;;;6.58;70.07;98965.44;4131533;28;20026;-70
2024/03/01 05:43:22;;;;;;;31.13;18.60;;;;;;;6.54;70.03;98970.22;4131257;28;20269;-69
2024/03/01 05:45:22;;;;;;;47.05;21.45;;;;;;;6.50;70.33;98966.16;4131545;28;20033;-70
2024/03/01 05:47:23;;;;;;;34.28;19.85;;;;;;;6.48;70.54;98969.94;4131356;28;20084;-70
2024/03/01 05:49:23;;;;;;;36.00;20.85;;;;;;;6.45;70.56;98965.75;4131341;28;20033;-70
2024/03/01 05:51:24;;;;;;;34.53;20.67;;;;;;;6.42;70.78;98962.56;4131459;28;20030;-70
2024/03/01 05:53:26;;;;;;;32.40;19.67;;;;;;;6.43;70.81;98966.88;4130922;28;20045;-70
2024/03/01 05:55:26;;;;;;;35.15;20.33;;;;;;;6.49;70.64;98963.66;4130897;28;20030;-70
2024/03/01 05:57:26;;;;;;;31.42;19.50;;;;;;;6.53;70.50;98968.53;4130878;28;20545;-69
2024/03/01 05:59:27;;;;;;;37.53;20.07;;;;;;;6.60;70.16;98973.25;4130901;28;20030;-70
2024/03/01 06:01:27;;;;;;;30.73;19.10;;;;;;;6.64;70.02;98974.66;4129710;28;20782;-70
2024/03/01 06:03:28;;;;;;;33.20;20.63;;;;;;;6.62;70.29;98976.59;4130143;28;20848;-70
2024/03/01 06:05:28;;;;;;;33.50;18.63;;;;;;;6.73;69.74;98968.47;4129802;28;20046;-71
2024/03/01 06:07:29;;;;;;;28.10;18.40;;;;;;;6.80;69.68;98977.50;4130957;28;20726;-71
2024/03/01 06:09:29;;;;;;;26.80;16.98;;;;;;;6.85;69.64;98966.44;4130936;28;20491;-70
2024/03/01 06:11:29;;;;;;;33.57;19.23;;;;;;;6.80;69.58;98964.22;4130353;28;20112;-71
2024/03/01 06:13:30;;;;;;;28.48;19.23;;;;;;;6.72;69.81;98967.59;4130261;28;20045;-69
2024/03/01 06:15:30;;;;;;;30.80;18.50;;;;;;;6.80;69.62;98966.06;4130958;28;20030;-70
2024/03/01 06:17:34;;;;;;;29.13;18.30;;;;;;;6.88;69.44;98982.09;4140139;28;20649;-70
2024/03/01 06:19:35;;;;;;;30.90;18.45;;;;;;;6.91;69.10;98976.47;4133422;28;20030;-70
2024/03/01 06:21:35;;;;;;;29.07;16.87;;;;;;;6.99;68.88;98968.59;4131168;28;20018;-70
2024/03/01 06:23:35;;;;;;;29.00;17.90;;;;;;;7.05;68.82;98975.13;4130623;28;20735;-71
2024/03/01 06:25:36;;;;;;;26.23;15.50;;;;;;;7.06;68.62;98979.47;4130493;28;20435;-70
2024/03/01 06:27:37;;;;;;;27.63;15.52;;;;;;;7.03;68.83;98979.78;4130542;28;20042;-70
2024/03/01 06:29:38;;;;;;;;;;;;;;;6.98;68.94;98977.56;4130722;28;20018;-71
2024/03/01 06:31:38;;;;;;;23.65;14.10;;;;;;;7.05;68.65;98979.63;4129405;28;20016;-70
2024/03/01 06:33:41;;;;;;;23.73;15.50;;;;;;;7.09;68.60;98988.97;4129120;28;20049;-71
2024/03/01 06:35:41;;;;;;;26.40;15.68;;;;;;;7.08;68.67;98987.31;4127497;28;20026;-70
2024/03/01 06:37:41;;;;;;;25.48;16.10;;;;;;;7.09;68.58;98983.66;4129602;28;20415;-73
2024/03/01 06:39:42;;;;;;;25.53;17.27;;;;;;;7.09;68.68;98988.97;4130273;28;20030;-70
2024/03/01 06:41:42;;;;;;;26.67;15.50;;;;;;;7.12;68.62;98994.00;4130323;28;20037;-70
2024/03/01 06:43:42;;;;;;;25.33;14.97;;;;;;;7.18;68.70;98999.56;4130161;28;20265;-71
2024/03/01 06:45:43;;;;;;;25.33;15.87;;;;;;;7.17;68.56;98992.56;4129077;28;20278;-70
2024/03/01 06:47:43;;;;;;;28.67;17.75;;;;;;;7.16;68.65;98996.19;4129188;28;20034;-71
2024/03/01 06:49:44;;;;;;;30.50;17.63;;;;;;;7.23;68.42;99000.91;4130264;28;20031;-70
2024/03/01 06:51:45;;;;;;;33.05;19.73;;;;;;;7.24;68.44;98997.28;4130165;28;20119;-70
2024/03/01 06:53:45;;;;;;;33.38;18.35;;;;;;;7.22;68.46;98992.13;4130958;28;20632;-70
2024/03/01 06:55:45;;;;;;;29.27;16.75;;;;;;;7.23;68.43;98990.28;4130620;28;20487;-70
2024/03/01 06:57:46;;;;;;;32.72;18.60;;;;;;;7.29;68.38;98995.03;4129050;28;20793;-71
2024/03/01 06:59:46;;;;;;;28.83;17.38;;;;;;;7.34;68.27;98993.59;4130405;28;20026;-70
2024/03/01 07:01:47;;;;;;;26.92;14.90;;;;;;;7.40;68.09;98996.63;4130110;28;20072;-71
2024/03/01 07:03:47;;;;;;;30.23;18.70;;;;;;;7.43;68.09;98996.34;4130844;28;20038;-70
2024/03/01 07:05:47;;;;;;;36.53;20.33;;;;;;;7.36;68.24;98989.94;4128917;28;20320;-70
2024/03/01 07:07:48;;;;;;;37.47;20.63;;;;;;;7.27;68.55;98983.69;4134208;28;20039;-71
2024/03/01 07:09:49;;;;;;;41.57;21.00;;;;;;;7.19;68.75;98984.44;4145222;28;20340;-72
2024/03/01 07:11:50;;;;;;;33.72;19.23;;;;;;;7.36;68.47;98989.94;4144657;28;20574;-70
2024/03/01 07:13:50;;;;;;;35.07;18.87;;;;;;;7.44;68.20;98998.00;4140694;28;20042;-70
2024/03/01 07:15:51;;;;;;;40.67;22.73;;;;;;;7.43;68.27;98989.19;4139264;28;20694;-71
2024/03/01 07:17:55;;;;;;;33.50;20.88;;;;;;;7.51;68.11;98987.63;4152536;28;20032;-71
2024/03/01 07:19:55;;;;;;;31.30;19.67;;;;;;;7.53;67.92;98989.13;4158002;28;20025;-71
2024/03/01 07:21:56;;;;;;;29.00;17.45;;;;;;;7.61;67.88;98989.19;4156659;28;20033;-71
2024/03/01 07:23:57;;;;;;;28.13;17.25;;;;;;;7.68;67.70;98985.91;4148512;28;20489;-70
2024/03/01 07:25:57;;;;;;;27.33;16.02;;;;;;;7.70;67.60;98986.63;4147771;28;20033;-70
2024/03/01 07:27:58;;;;;;;26.40;16.00;;;;;;;7.71;67.58;98985.63;4147219;28;20030;-70
2024/03/01 07:29:58;;;;;;;24.05;15.93;;;;;;;7.73;67.61;98986.31;4147121;28;20049;-71
2024/03/01 07:31:59;;;;;;;30.38;17.75;;;;;;;7.74;67.56;98999.47;4146410;28;20026;-70
2024/03/01 07:33:59;;;;;;;32.10;18.23;;;;;;;7.76;67.56;98993.97;4146512;28;20075;-70
2024/03/01 07:36:00;;;;;;;30.58;17.10;;;;;;;7.74;67.60;98988.00;4145990;28;20076;-71
2024/03/01 07:38:00;;;;;;;33.38;18.15;;;;;;;7.75;67.70;98992.31;4144801;28;20561;-70
2024/03/01 07:40:04;;;;;;;39.28;19.83;;;;;;;7.80;67.54;98993.53;4146017;28;20086;-70
2024/03/01 07:42:05;;;;;;;37.67;19.55;;;;;;;7.88;67.40;98997.25;4146026;28;20022;-70
2024/03/01 07:44:06;;;;;;;32.35;18.58;;;;;;;7.97;66.97;98991.03;4145937;28;20022;-70
2024/03/01 07:46:06;;;;;;;30.02;17.75;;;;;;;7.94;67.19;98983.34;4144586;28;20034;-70
2024/03/01 07:48:07;;;;;;;35.08;17.90;;;;;;;8.01;67.01;98975.56;4145777;28;20149;-71
2024/03/01 07:50:07;;;;;;;33.65;18.50;;;;;;;8.03;66.93;98976.25;4145913;28;20437;-71
2024/03/01 07:52:08;;;;;;;33.40;19.63;;;;;;;8.03;66.92;98970.94;4145910;28;20021;-70
2024/03/01 07:54:09;;;;;;;27.53;17.57;;;;;;;8.05;66.83;98968.94;4146342;28;20733;-69
2024/03/01 07:56:10;;;;;;;28.20;17.92;;;;;;;8.10;66.85;98977.31;4146430;28;20272;-71
2024/03/01 07:58:10;;;;;;;;;;;;;;;8.17;66.28;98983.69;4146637;28;20029;-71
2024/03/01 08:00:11;;;;;;;27.90;15.90;;;;;;;8.23;66.52;98987.53;4146306;28;19915;-70
2024/03/01 08:02:12;;;;;;;27.27;16.10;;;;;;;8.19;66.63;98979.03;4145099;28;20483;-71
2024/03/01 08:04:12;;;;;;;33.83;19.57;;;;;;;8.24;66.43;98975.91;4145796;28;20052;-70
2024/03/01 08:06:13;;;;;;;28.02;17.88;;;;;;;8.31;66.15;98976.13;4144256;28;20125;-70
2024/03/01 08:08:27;;;;;;;32.47;18.77;;;;;;;8.35;66.17;98980.13;4145446;28;20088;-71
2024/03/01 08:10:33;;;;;;;29.38;16.85;;;;;;;8.45;65.96;98977.38;4146472;28;20480;-71
2024/03/01 08:12:34;;;;;;;33.38;19.38;;;;;;;8.34;66.25;98979.31;4165875;28;20050;-71
2024/03/01 08:14:41;;;;;;;30.27;18.30;;;;;;;8.43;65.97;98977.50;4161622;28;20033;-71
2024/03/01 08:16:41;;;;;;;29.90;17.15;;;;;;;8.48;66.02;98979.75;4145871;28;20030;-71
2024/03/01 08:18:42;;;;;;;25.02;16.23;;;;;;;8.55;65.86;98978.09;4145789;28;20113;-70
2024/03/01 08:21:03;;;;;;;27.48;16.80;;;;;;;8.60;65.38;98983.00;4132599;28;20035;-70
2024/03/01 08:23:04;;;;;;;30.50;18.73;;;;;;;8.58;65.85;98989.31;4127872;28;20080;-70
2024/03/01 08:25:06;;;;;;;31.10;17.63;;;;;;;8.54;65.82;98979.94;4129257;28;20034;-70
2024/03/01 08:27:08;;;;;;;29.75;17.63;;;;;;;8.57;65.77;98995.63;4129060;28;20031;-71
2024/03/01 08:29:09;;;;;;;33.53;19.23;;;;;;;8.51;65.96;98990.09;4147282;28;20041;-71
2024/03/01 08:31:33;;;;;;;37.92;20.25;;;;;;;8.28;65.98;98991.41;4164678;28;20026;-70
2024/03/01 08:33:38;;;;;;;33.95;22.08;;;;;;;8.28;66.58;98990.56;4164778;28;20025;-70
2024/03/01 08:35:41;;;;;;;32.83;20.23;;;;;;;8.34;66.54;98989.97;4165223;28;20025;-70
2024/03/01 08:37:42;;;;;;;29.92;19.77;;;;;;;8.37;66.40;98986.13;4164788;28;20082;-71
2024/03/01 08:39:42;;;;;;;32.97;19.35;;;;;;;8.46;66.22;98992.34;4165010;28;20726;-71
2024/03/01 08:41:45;;;;;;;30.75;19.48;;;;;;;8.42;66.28;98989.16;4164999;28;20071;-71
2024/03/01 08:43:47;;;;;;;39.20;22.13;;;;;;;8.45;66.23;98996.84;4165242;28;20065;-71
2024/03/01 08:45:47;;;;;;;35.50;20.05;;;;;;;8.67;65.92;98986.69;4164556;28;20113;-70
2024/03/01 08:47:59;;;;;;;31.92;17.95;;;;;;;8.80;65.28;98986.25;4164559;28;20033;-71
2024/03/01 08:50:11;;;;;;;;;;;;;;;8.76;65.24;98983.06;4165366;28;20044;-70
2024/03/01 08:52:28;;;;;;;36.47;20.05;;;;;;;8.76;65.71;98988.41;4164181;28;19909;-71
2024/03/01 08:54:29;;;;;;;29.02;18.55;;;;;;;8.83;65.77;98993.94;4164591;28;20025;-71
2024/03/01 08:56:37;;;;;;;33.00;20.42;;;;;;;8.83;65.74;99000.09;4164468;28;20071;-71
2024/03/01 08:58:38;;;;;;;36.58;19.98;;;;;;;8.98;65.51;98991.47;4164642;28;20034;-70
2024/03/01 09:00:43;;;;;;;;;;;;;;;9.12;64.96;98998.03;4163843;28;20454;-71
2024/03/01 09:02:48;;;;;;;30.70;18.23;;;;;;;9.24;64.74;99001.25;4164092;28;19909;-71
2024/03/01 09:04:48;;;;;;;31.40;19.20;;;;;;;9.27;64.76;99001.75;4164714;28;20049;-71
2024/03/01 09:07:07;;;;;;;32.30;19.77;;;;;;;9.45;64.24;99001.63;4164613;28;20481;-71
2024/03/01 09:09:19;;;;;;;30.15;18.73;;;;;;;9.56;64.18;98989.84;4164925;28;20359;-70
2024/03/01 09:11:20;;;;;;;;;;;;;;;9.67;63.32;98999.34;4165172;28;20052;-70
2024/03/01 09:13:22;;;;;;;28.33;17.58;;;;;;;9.69;63.93;98989.34;4163773;28;20082;-70
2024/03/01 09:15:24;;;;;;;35.13;19.70;;;;;;;9.75;63.79;98987.84;4163773;28;20540;-70
2024/03/01 09:17:25;;;;;;;31.63;20.95;;;;;;;9.77;63.78;98997.34;4164365;28;20071;-71
2024/03/01 09:19:31;;;;;;;29.77;18.15;;;;;;;9.90;63.45;98993.38;4164431;28;20029;-71
2024/03/01 09:21:31;;;;;;;27.65;18.63;;;;;;;10.11;63.05;98982.19;4164301;28;20033;-70
2024/03/01 09:23:31;;;;;;;28.27;18.40;;;;;;;10.19;62.69;98978.69;4162825;28;20112;-70
2024/03/01 09:25:41;;;;;;;26.63;17.53;;;;;;;10.24;61.63;98987.00;4164176;28;20260;-71